Terminal Aerodrome Forecast
Issued by NWS

Home | Current Version | Previous Version | Text Only | Print | Product List | Glossary On
Versions: 1 2 3 4 5 6 7 8 9 10 11 12 13 14 15
067
FTUS43 KAPX 202320
TAFPLN
TAF
KPLN 202320Z 2100/2124 21004KT P6SM BKN200 WS015/21030KT
     FM210300 20005KT P6SM SCT200 WS015/23030KT
     FM210700 22005KT P6SM VCSH SCT060 BKN120 WS015/24030KT
     FM211200 25006KT P6SM SCT120 BKN200
     FM211800 27007KT P6SM VCSH SCT050 BKN100=

USA.gov is the U.S. government's official web portal to all federal, state and local government web resources and services.